createdAt,value
2019-05-01T00:00:44.063Z,96.37
2019-05-01T00:01:44.239Z,95.81
2019-05-01T00:02:44.412Z,96.23
2019-05-01T00:03:44.588Z,96.23
2019-05-01T00:04:44.745Z,95.92
2019-05-01T00:05:44.907Z,95.45
2019-05-01T00:06:45.094Z,95.45
2019-05-01T00:07:45.265Z,95.45
2019-05-01T00:08:45.420Z,95.34
2019-05-01T00:09:45.601Z,95.14
2019-05-01T00:10:45.757Z,95.34
2019-05-01T00:11:45.922Z,95.96
2019-05-01T00:12:46.090Z,95.70
2019-05-01T00:13:46.232Z,95.39
2019-05-01T00:14:46.369Z,95.28
2019-05-01T00:15:46.533Z,97.08
2019-05-01T00:16:46.733Z,97.25
2019-05-01T00:17:46.906Z,97.86
2019-05-01T00:18:47.083Z,97.25
2019-05-01T00:19:47.245Z,97.34
2019-05-01T00:20:47.409Z,97.34
2019-05-01T00:21:47.617Z,97.34
2019-05-01T00:22:47.783Z,96.42
2019-05-01T00:23:47.966Z,96.73
2019-05-01T00:24:48.134Z,96.62
2019-05-01T00:25:48.307Z,97.86
2019-05-01T00:26:48.502Z,97.55
2019-05-01T00:27:48.701Z,97.04
2019-05-01T00:28:48.899Z,97.25
2019-05-01T00:29:49.059Z,96.73
2019-05-01T00:30:49.261Z,95.43
2019-05-01T00:31:49.440Z,96.67
2019-05-01T00:32:49.604Z,97.71
2019-05-01T00:33:49.806Z,97.19
2019-05-01T00:34:49.982Z,97.50
2019-05-01T00:35:50.162Z,97.29
2019-05-01T00:36:50.326Z,97.19
2019-05-01T00:37:50.495Z,97.71
2019-05-01T00:38:50.668Z,97.08
2019-05-01T00:39:50.848Z,97.71
2019-05-01T00:40:51.009Z,97.39
2019-05-01T00:41:51.159Z,97.86
2019-05-01T00:42:51.364Z,97.50
2019-05-01T00:43:51.579Z,97.29
2019-05-01T00:44:51.679Z,96.98
2019-05-01T00:45:51.842Z,97.19
2019-05-01T00:46:52.010Z,96.77
2019-05-01T00:47:52.196Z,97.60
2019-05-01T00:48:52.401Z,98.63
2019-05-01T00:49:52.577Z,98.84
2019-05-01T00:50:52.778Z,97.96
2019-05-01T00:51:52.956Z,98.01
2019-05-01T00:52:53.153Z,97.60
2019-05-01T00:53:53.355Z,97.60
2019-05-01T00:54:53.534Z,97.50
2019-05-01T00:55:53.711Z,98.11
2019-05-01T00:56:53.885Z,98.11
2019-05-01T00:57:54.047Z,97.38
2019-05-01T00:58:54.271Z,96.82
2019-05-01T00:59:54.445Z,97.13
2019-05-01T01:00:54.651Z,98.16
2019-05-01T01:01:54.822Z,98.63
2019-05-01T01:02:54.977Z,98.47
2019-05-01T01:03:55.122Z,99.09
2019-05-01T01:04:55.330Z,98.88
2019-05-01T01:05:55.535Z,98.88
2019-05-01T01:06:55.707Z,98.01
2019-05-01T01:07:55.874Z,98.11
2019-05-01T01:08:56.044Z,97.64
2019-05-01T01:09:56.205Z,97.02
2019-05-01T01:10:56.421Z,96.82
2019-05-01T01:11:56.618Z,96.51
2019-05-01T01:12:56.823Z,96.14
2019-05-01T01:13:57.014Z,95.62
2019-05-01T01:14:57.199Z,97.17
2019-05-01T01:15:57.369Z,96.97
2019-05-01T01:16:57.578Z,97.49
2019-05-01T01:17:57.758Z,97.49
2019-05-01T01:18:57.911Z,97.59
2019-05-01T01:19:58.067Z,97.69
2019-05-01T01:20:59.221Z,97.69
2019-05-01T01:21:58.389Z,97.59
2019-05-01T01:22:58.535Z,97.32
2019-05-01T01:23:58.694Z,97.74
2019-05-01T01:24:58.850Z,97.94
2019-05-01T01:26:00.042Z,98.00
2019-05-01T01:26:59.149Z,97.69
2019-05-01T01:27:59.303Z,97.38
2019-05-01T01:28:59.465Z,98.25
2019-05-01T01:29:59.637Z,98.21
2019-05-01T01:30:59.805Z,98.21
2019-05-01T01:31:59.980Z,98.10
2019-05-01T01:33:00.200Z,97.94
2019-05-01T01:34:00.377Z,98.46
2019-05-01T01:35:00.564Z,98.15
2019-05-01T01:36:00.716Z,98.25
2019-05-01T01:37:00.880Z,98.15
2019-05-01T01:38:01.056Z,98.35
2019-05-01T01:39:01.227Z,97.53
2019-05-01T01:40:01.457Z,97.06
2019-05-01T01:41:01.651Z,97.36
2019-05-01T01:42:01.818Z,97.57
2019-05-01T01:43:02.009Z,97.26
2019-05-01T01:44:02.200Z,98.30
2019-05-01T01:45:02.396Z,98.19
2019-05-01T01:46:02.573Z,97.78
2019-05-01T01:47:02.735Z,98.61
2019-05-01T01:48:02.949Z,98.77
2019-05-01T01:49:03.126Z,99.13
2019-05-01T01:50:03.320Z,99.02
2019-05-01T01:51:03.480Z,99.23
2019-05-01T01:52:03.672Z,99.02
2019-05-01T01:53:03.856Z,98.19
2019-05-01T01:54:05.064Z,98.09
2019-05-01T01:55:04.241Z,98.61
2019-05-01T01:56:04.436Z,99.23
2019-05-01T01:57:04.633Z,99.02
2019-05-01T01:58:04.841Z,98.92
2019-05-01T01:59:05.034Z,98.92
2019-05-01T02:00:05.259Z,98.82
2019-05-01T02:01:09.564Z,98.82
2019-05-01T02:02:06.586Z,98.92
2019-05-01T02:03:05.757Z,98.71
2019-05-01T02:04:05.964Z,98.61
2019-05-01T02:05:06.196Z,98.24
2019-05-01T02:06:06.404Z,98.55
2019-05-01T02:07:06.608Z,98.13
2019-05-01T02:08:08.932Z,97.83
2019-05-01T02:09:07.007Z,97.83
2019-05-01T02:10:07.288Z,98.13
2019-05-01T02:11:07.440Z,97.97
2019-05-01T02:12:07.648Z,98.39
2019-05-01T02:13:07.908Z,99.48
2019-05-01T02:14:08.093Z,99.79
2019-05-01T02:15:09.308Z,99.69
2019-05-01T02:16:08.473Z,99.95
2019-05-01T02:17:08.664Z,99.85
2019-05-01T02:18:08.896Z,99.27
2019-05-01T02:19:09.070Z,99.79
2019-05-01T02:20:10.229Z,99.33
2019-05-01T02:21:09.475Z,98.75
2019-05-01T02:22:09.632Z,99.07
2019-05-01T02:23:09.838Z,99.27
2019-05-01T02:24:09.987Z,99.01
2019-05-01T02:25:10.156Z,99.01
2019-05-01T02:26:10.292Z,99.27
2019-05-01T02:27:10.424Z,99.01
2019-05-01T02:28:10.618Z,98.80
2019-05-01T02:29:10.766Z,98.70
2019-05-01T02:30:10.923Z,99.43
2019-05-01T02:31:27.017Z,99.22
2019-05-01T02:32:13.303Z,99.16
2019-05-01T02:33:11.565Z,99.16
2019-05-01T02:34:11.694Z,99.43
2019-05-01T02:35:11.849Z,99.73
2019-05-01T02:36:12.000Z,99.99
2019-05-01T02:37:12.175Z,99.99
2019-05-01T02:38:12.379Z,99.88
2019-05-01T02:39:12.547Z,99.16
2019-05-01T02:40:12.714Z,99.37
2019-05-01T02:41:12.911Z,99.99
2019-05-01T02:42:13.107Z,99.99
2019-05-01T02:43:13.274Z,99.99
2019-05-01T02:44:13.481Z,99.99
2019-05-01T02:45:13.697Z,99.99
2019-05-01T02:46:13.860Z,99.73
2019-05-01T02:47:14.063Z,99.16
2019-05-01T02:48:14.224Z,99.47
2019-05-01T02:49:14.406Z,99.37
2019-05-01T02:50:14.628Z,99.47
2019-05-01T02:51:14.786Z,99.78
2019-05-01T02:52:14.965Z,99.99
2019-05-01T02:53:15.128Z,99.99
2019-05-01T02:54:15.286Z,99.99
2019-05-01T02:55:15.465Z,99.99
2019-05-01T02:56:15.646Z,99.99
2019-05-01T02:57:15.809Z,99.99
2019-05-01T02:58:15.990Z,99.99
2019-05-01T02:59:16.180Z,99.99
2019-05-01T03:00:16.396Z,99.99
2019-05-01T03:01:16.560Z,99.99
2019-05-01T03:02:16.740Z,99.99
2019-05-01T03:03:16.913Z,99.99
2019-05-01T03:04:17.091Z,99.99
2019-05-01T03:05:17.299Z,99.99
2019-05-01T03:06:17.455Z,99.99
2019-05-01T03:07:17.706Z,99.99
2019-05-01T03:08:17.856Z,99.99
2019-05-01T03:09:18.054Z,99.99
2019-05-01T03:10:18.218Z,99.99
2019-05-01T03:11:18.406Z,99.99
2019-05-01T03:12:18.561Z,99.99
2019-05-01T03:13:18.719Z,99.99
2019-05-01T03:14:18.893Z,99.99
2019-05-01T03:15:19.039Z,99.99
2019-05-01T03:16:19.222Z,99.99
2019-05-01T03:17:19.358Z,99.99
2019-05-01T03:18:19.490Z,99.99
2019-05-01T03:19:19.623Z,99.99
2019-05-01T03:20:19.785Z,99.99
2019-05-01T03:21:19.958Z,99.99
2019-05-01T03:22:20.117Z,99.99
2019-05-01T03:23:20.284Z,99.99
2019-05-01T03:24:20.426Z,99.99
2019-05-01T03:25:20.580Z,99.99
2019-05-01T03:26:20.715Z,99.57
2019-05-01T03:27:20.888Z,99.99
2019-05-01T03:28:21.031Z,99.99
2019-05-01T03:29:21.175Z,99.99
2019-05-01T03:30:21.329Z,99.99
2019-05-01T03:31:21.447Z,99.99
2019-05-01T03:32:21.625Z,99.99
2019-05-01T03:33:21.784Z,99.99
2019-05-01T03:34:21.935Z,99.78
2019-05-01T03:35:22.107Z,99.99
2019-05-01T03:36:22.247Z,99.99
2019-05-01T03:37:22.419Z,99.99
2019-05-01T03:38:22.590Z,99.99
2019-05-01T03:39:22.729Z,99.99
2019-05-01T03:40:22.936Z,99.99
2019-05-01T03:41:23.106Z,99.99
2019-05-01T03:42:23.285Z,99.99
2019-05-01T03:43:23.463Z,99.99
2019-05-01T03:44:23.628Z,99.99
2019-05-01T03:45:23.778Z,99.99
2019-05-01T03:46:23.932Z,99.99
2019-05-01T03:47:24.106Z,99.99
2019-05-01T03:48:24.288Z,99.99
2019-05-01T03:49:24.448Z,99.99
2019-05-01T03:50:24.560Z,99.99
2019-05-01T03:51:24.711Z,99.99
2019-05-01T03:52:24.875Z,99.47
2019-05-01T03:53:25.049Z,99.05
2019-05-01T03:54:25.256Z,99.22
2019-05-01T03:55:25.448Z,99.79
2019-05-01T03:56:25.636Z,99.58
2019-05-01T03:57:25.785Z,99.99
2019-05-01T03:58:25.967Z,99.73
2019-05-01T03:59:26.192Z,99.22
2019-05-01T04:00:26.359Z,99.11
2019-05-01T04:01:26.519Z,99.22
2019-05-01T04:02:33.582Z,99.11
2019-05-01T04:03:28.851Z,99.47
2019-05-01T04:04:27.005Z,99.99
2019-05-01T04:05:27.158Z,99.99
2019-05-01T04:06:27.336Z,99.99
2019-05-01T04:07:27.513Z,99.99
2019-05-01T04:08:27.689Z,99.99
2019-05-01T04:09:27.897Z,99.99
2019-05-01T04:10:28.075Z,99.99
2019-05-01T04:11:28.245Z,99.69
2019-05-01T04:12:28.375Z,99.90
2019-05-01T04:13:28.556Z,99.99
2019-05-01T04:14:28.746Z,99.99
2019-05-01T04:15:28.940Z,99.13
2019-05-01T04:16:29.102Z,99.99
2019-05-01T04:17:30.248Z,98.61
2019-05-01T04:18:29.486Z,99.54
2019-05-01T04:19:29.641Z,99.23
2019-05-01T04:20:29.788Z,99.64
2019-05-01T04:21:29.938Z,99.43
2019-05-01T04:22:30.079Z,98.77
2019-05-01T04:23:30.249Z,98.97
2019-05-01T04:24:30.421Z,98.77
2019-05-01T04:25:30.603Z,99.60
2019-05-01T04:26:30.762Z,99.76
2019-05-01T04:27:30.957Z,99.04
2019-05-01T04:28:31.107Z,98.93
2019-05-01T04:29:31.298Z,98.83
2019-05-01T04:30:31.497Z,98.27
2019-05-01T04:31:31.624Z,98.83
2019-05-01T04:32:50.313Z,98.68
2019-05-01T04:33:32.913Z,98.43
2019-05-01T04:34:32.150Z,99.15
2019-05-01T04:35:32.297Z,98.84
2019-05-01T04:36:32.466Z,98.11
2019-05-01T04:37:32.639Z,97.91
2019-05-01T04:38:33.813Z,98.74
2019-05-01T04:39:32.961Z,98.63
2019-05-01T04:40:34.156Z,98.58
2019-05-01T04:41:34.301Z,98.79
2019-05-01T04:42:33.429Z,97.97
2019-05-01T04:43:33.579Z,97.92
2019-05-01T04:44:33.769Z,98.02
2019-05-01T04:45:33.966Z,98.69
2019-05-01T04:46:34.158Z,97.25
2019-05-01T04:47:34.315Z,96.99
2019-05-01T04:48:34.480Z,97.82
2019-05-01T04:49:34.629Z,98.02
2019-05-01T04:50:34.784Z,98.23
2019-05-01T04:51:34.983Z,98.80
2019-05-01T04:52:35.158Z,98.70
2019-05-01T04:53:35.317Z,98.29
2019-05-01T04:54:35.487Z,97.77
2019-05-01T04:55:35.633Z,97.98
2019-05-01T04:56:35.830Z,97.56
2019-05-01T04:57:35.985Z,98.03
2019-05-01T04:58:36.140Z,98.08
2019-05-01T04:59:36.290Z,97.21
2019-05-01T05:00:36.442Z,96.91
2019-05-01T05:01:36.627Z,97.89
2019-05-01T05:02:36.763Z,97.89
2019-05-01T05:03:36.898Z,97.89
2019-05-01T05:04:37.050Z,97.89
2019-05-01T05:05:37.189Z,97.52
2019-05-01T05:06:37.352Z,97.52
2019-05-01T05:07:37.496Z,97.38
2019-05-01T05:08:37.644Z,97.89
2019-05-01T05:09:37.763Z,97.58
2019-05-01T05:10:37.898Z,97.48
2019-05-01T05:11:38.029Z,97.23
2019-05-01T05:12:38.162Z,96.61
2019-05-01T05:13:38.266Z,96.75
2019-05-01T05:14:38.402Z,96.20
2019-05-01T05:15:38.636Z,96.20
2019-05-01T05:16:38.877Z,96.20
2019-05-01T05:17:39.109Z,95.93
2019-05-01T05:18:39.359Z,95.99
2019-05-01T05:19:39.469Z,96.30
2019-05-01T05:20:39.594Z,96.41
2019-05-01T05:21:39.718Z,96.96
2019-05-01T05:22:39.840Z,96.30
2019-05-01T05:23:40.007Z,96.45
2019-05-01T05:24:40.147Z,97.13
2019-05-01T05:25:40.333Z,97.95
2019-05-01T05:26:40.471Z,96.50
2019-05-01T05:27:40.602Z,96.41
2019-05-01T05:28:40.755Z,95.99
2019-05-01T05:29:40.917Z,95.23
2019-05-01T05:30:41.061Z,95.23
2019-05-01T05:31:41.253Z,96.09
2019-05-01T05:32:41.376Z,96.09
2019-05-01T05:33:41.550Z,95.89
2019-05-01T05:34:41.713Z,97.13
2019-05-01T05:35:41.866Z,96.67
2019-05-01T05:36:42.021Z,96.67
2019-05-01T05:37:42.198Z,96.88
2019-05-01T05:38:42.374Z,96.97
2019-05-01T05:39:42.534Z,96.09
2019-05-01T05:40:42.703Z,96.36
2019-05-01T05:41:42.880Z,96.56
2019-05-01T05:42:43.065Z,95.23
2019-05-01T05:43:43.262Z,96.25
2019-05-01T05:44:43.424Z,97.14
2019-05-01T05:45:43.591Z,96.11
2019-05-01T05:46:43.760Z,96.42
2019-05-01T05:47:43.926Z,95.84
2019-05-01T05:48:44.095Z,95.95
2019-05-01T05:49:44.302Z,97.08
2019-05-01T05:50:44.507Z,96.36
2019-05-01T05:51:44.656Z,96.97
2019-05-01T05:52:44.832Z,96.42
2019-05-01T05:53:45.017Z,96.56
2019-05-01T05:54:45.233Z,96.72
2019-05-01T05:55:45.414Z,97.14
2019-05-01T05:56:45.581Z,97.24
2019-05-01T05:57:45.749Z,96.83
2019-05-01T05:58:45.901Z,97.30
2019-05-01T05:59:46.142Z,97.71
2019-05-01T06:00:46.295Z,96.64
2019-05-01T06:01:46.485Z,96.94
2019-05-01T06:02:46.664Z,97.15
2019-05-01T06:03:46.820Z,96.64
2019-05-01T06:04:46.994Z,96.53
2019-05-01T06:05:47.162Z,95.45
2019-05-01T06:06:47.347Z,95.75
2019-05-01T06:07:47.510Z,96.58
2019-05-01T06:08:47.669Z,97.09
2019-05-01T06:09:48.513Z,97.81
2019-05-01T06:10:49.042Z,97.91
2019-05-01T06:11:48.300Z,97.91
2019-05-01T06:12:48.662Z,97.71
2019-05-01T06:13:52.655Z,98.12
2019-05-01T06:14:49.758Z,97.30
2019-05-01T06:15:49.268Z,96.78
2019-05-01T06:16:52.196Z,96.73
2019-05-01T06:17:50.340Z,96.89
2019-05-01T06:18:49.575Z,96.68
2019-05-01T06:19:50.870Z,96.37
2019-05-01T06:20:50.901Z,96.99
2019-05-01T06:21:50.165Z,97.56
2019-05-01T06:22:50.306Z,97.15
2019-05-01T06:23:52.700Z,98.07
2019-05-01T06:24:52.674Z,97.36
2019-05-01T06:25:54.127Z,96.12
2019-05-01T06:26:53.135Z,96.17
2019-05-01T06:27:51.221Z,96.11
2019-05-01T06:28:51.372Z,96.47
2019-05-01T06:29:51.489Z,98.02
2019-05-01T06:30:51.637Z,97.91
2019-05-01T06:31:54.011Z,97.91
2019-05-01T06:32:53.907Z,96.94
2019-05-01T06:33:52.981Z,96.58
2019-05-01T06:34:53.306Z,97.36
2019-05-01T06:35:52.508Z,97.15
2019-05-01T06:36:52.772Z,96.73
2019-05-01T06:37:56.055Z,95.92
2019-05-01T06:38:55.029Z,96.43
2019-05-01T06:39:53.210Z,97.77
2019-05-01T06:40:58.117Z,97.36
2019-05-01T06:41:54.579Z,96.39
2019-05-01T06:42:53.831Z,96.73
2019-05-01T06:43:56.985Z,96.33
2019-05-01T06:44:56.208Z,96.33
2019-05-01T06:45:54.429Z,95.71
2019-05-01T06:46:58.291Z,94.99
2019-05-01T06:47:55.825Z,95.92
2019-05-01T06:48:54.985Z,95.61
2019-05-01T06:49:55.146Z,95.81
2019-05-01T06:50:55.340Z,96.43
2019-05-01T06:51:55.505Z,95.50
2019-05-01T06:52:55.679Z,96.02
2019-05-01T06:53:55.840Z,95.92
2019-05-01T06:54:55.988Z,95.71
2019-05-01T06:55:56.145Z,95.87
2019-05-01T06:56:56.303Z,95.46
2019-05-01T06:57:56.453Z,95.10
2019-05-01T06:58:56.638Z,94.59
2019-05-01T06:59:56.827Z,94.74
2019-05-01T07:00:56.963Z,95.06
2019-05-01T07:01:58.462Z,95.06
2019-05-01T07:02:58.287Z,93.32
2019-05-01T07:04:03.642Z,93.01
2019-05-01T07:04:59.787Z,93.38
2019-05-01T07:05:57.891Z,92.97
2019-05-01T07:07:01.971Z,91.94
2019-05-01T07:07:58.288Z,92.86
2019-05-01T07:08:58.428Z,93.54
2019-05-01T07:09:58.584Z,92.21
2019-05-01T07:10:58.730Z,92.04
2019-05-01T07:11:58.889Z,92.66
2019-05-01T07:12:59.851Z,92.95
2019-05-01T07:14:01.289Z,93.87
2019-05-01T07:14:59.522Z,93.83
2019-05-01T07:16:03.219Z,93.27
2019-05-01T07:16:59.922Z,93.07
2019-05-01T07:18:00.083Z,91.84
2019-05-01T07:19:05.726Z,92.51
2019-05-01T07:20:02.501Z,92.82
2019-05-01T07:21:00.758Z,91.28
2019-05-01T07:22:01.758Z,90.67
2019-05-01T07:23:02.034Z,90.77
2019-05-01T07:24:01.163Z,91.12
2019-05-01T07:25:04.129Z,91.28
2019-05-01T07:26:02.502Z,91.28
2019-05-01T07:27:01.611Z,91.18
2019-05-01T07:28:01.796Z,91.28
2019-05-01T07:29:06.061Z,91.18
2019-05-01T07:30:03.127Z,91.02
2019-05-01T07:31:05.034Z,93.07
2019-05-01T07:32:06.340Z,93.33
2019-05-01T07:33:03.602Z,92.57
2019-05-01T07:34:02.728Z,92.27
2019-05-01T07:35:03.987Z,90.37
2019-05-01T07:36:06.964Z,89.50
2019-05-01T07:37:04.194Z,90.52
2019-05-01T07:38:03.471Z,90.93
2019-05-01T07:39:03.430Z,91.28
2019-05-01T07:40:03.590Z,91.24
2019-05-01T07:41:05.206Z,90.87
2019-05-01T07:42:07.810Z,91.24
2019-05-01T07:43:04.113Z,90.67
2019-05-01T07:44:04.276Z,91.14
2019-05-01T07:45:08.376Z,90.81
2019-05-01T07:46:05.587Z,92.80
2019-05-01T07:47:04.721Z,92.60
2019-05-01T07:48:05.595Z,92.80
2019-05-01T07:49:06.112Z,93.27
2019-05-01T07:50:05.261Z,93.68
2019-05-01T07:51:07.109Z,91.12
2019-05-01T07:52:06.563Z,91.67
2019-05-01T07:53:05.729Z,91.99
2019-05-01T07:54:08.803Z,92.91
2019-05-01T07:55:07.132Z,92.91
2019-05-01T07:56:06.251Z,92.97
2019-05-01T07:57:06.405Z,92.55
2019-05-01T07:58:10.517Z,91.80
2019-05-01T07:59:07.668Z,91.28
2019-05-01T08:00:08.528Z,90.56
2019-05-01T08:01:07.989Z,91.24
2019-05-01T08:02:07.119Z,90.48
2019-05-01T08:03:08.347Z,89.87
2019-05-01T08:04:07.510Z,90.58
2019-05-01T08:05:09.959Z,89.04
2019-05-01T08:06:08.823Z,89.72
2019-05-01T08:07:08.099Z,89.51
2019-05-01T08:08:09.575Z,89.15
2019-05-01T08:09:11.355Z,89.83
2019-05-01T08:10:10.612Z,88.33
2019-05-01T08:11:10.346Z,89.56
2019-05-01T08:12:09.973Z,89.25
2019-05-01T08:13:09.088Z,88.94
2019-05-01T08:14:12.001Z,89.81
2019-05-01T08:15:11.440Z,90.42
2019-05-01T08:16:09.692Z,90.52
2019-05-01T08:17:12.919Z,89.87
2019-05-01T08:18:11.981Z,90.54
2019-05-01T08:19:10.195Z,89.83
2019-05-01T08:20:14.864Z,87.51
2019-05-01T08:21:11.477Z,89.64
2019-05-01T08:22:10.630Z,91.08
2019-05-01T08:23:12.111Z,90.77
2019-05-01T08:24:11.968Z,91.59
2019-05-01T08:25:11.203Z,91.35
2019-05-01T08:26:11.359Z,91.55
2019-05-01T08:27:15.572Z,91.35
2019-05-01T08:28:12.640Z,90.52
2019-05-01T08:29:11.897Z,90.73
2019-05-01T08:30:12.838Z,90.75
2019-05-01T08:31:14.292Z,90.54
2019-05-01T08:32:12.505Z,89.62
2019-05-01T08:33:14.544Z,88.53
2019-05-01T08:34:13.820Z,89.42
2019-05-01T08:35:12.950Z,89.25
2019-05-01T08:36:13.510Z,89.42
2019-05-01T08:37:17.802Z,88.90
2019-05-01T08:38:14.360Z,90.13
2019-05-01T08:39:13.983Z,90.70
2019-05-01T08:40:15.956Z,90.36
2019-05-01T08:41:16.086Z,87.79
2019-05-01T08:42:14.244Z,88.20
2019-05-01T08:43:18.105Z,87.49
2019-05-01T08:44:15.533Z,87.02
2019-05-01T08:45:14.670Z,88.08
2019-05-01T08:46:16.541Z,89.27
2019-05-01T08:47:16.043Z,89.89
2019-05-01T08:48:15.171Z,88.76
2019-05-01T08:49:15.341Z,88.35
2019-05-01T08:50:19.857Z,87.16
2019-05-01T08:51:16.633Z,89.21
2019-05-01T08:52:15.807Z,89.97
2019-05-01T08:53:18.117Z,89.50
2019-05-01T08:54:18.098Z,89.50
2019-05-01T08:55:16.215Z,89.56
2019-05-01T08:56:16.899Z,90.58
2019-05-01T08:57:18.542Z,89.92
2019-05-01T08:58:16.704Z,89.72
2019-05-01T08:59:19.418Z,88.45
2019-05-01T09:00:19.067Z,89.47
2019-05-01T09:01:17.195Z,89.23
2019-05-01T09:02:17.369Z,88.71
2019-05-01T09:03:18.839Z,88.47
2019-05-01T09:04:18.903Z,86.88
2019-05-01T09:05:28.207Z,86.98
2019-05-01T09:06:20.067Z,88.68
2019-05-01T09:07:19.137Z,85.91
2019-05-01T09:08:19.358Z,85.67
2019-05-01T09:09:18.486Z,87.65
2019-05-01T09:10:21.716Z,85.94
2019-05-01T09:11:19.868Z,85.89
2019-05-01T09:12:18.983Z,85.28
2019-05-01T09:13:23.778Z,83.65
2019-05-01T09:14:20.292Z,84.16
2019-05-01T09:15:19.421Z,83.34
2019-05-01T09:16:23.455Z,83.34
2019-05-01T09:17:20.730Z,83.14
2019-05-01T09:18:19.850Z,82.67
2019-05-01T09:19:20.028Z,84.03
2019-05-01T09:20:20.197Z,85.32
2019-05-01T09:21:20.331Z,85.02
2019-05-01T09:22:20.475Z,83.07
2019-05-01T09:23:20.642Z,85.73
2019-05-01T09:24:23.215Z,84.44
2019-05-01T09:25:22.956Z,86.02
2019-05-01T09:26:21.189Z,86.32
2019-05-01T09:27:23.829Z,85.71
2019-05-01T09:28:23.607Z,85.26
2019-05-01T09:29:21.854Z,85.97
2019-05-01T09:30:26.813Z,85.83
2019-05-01T09:31:23.223Z,84.16
2019-05-01T09:32:23.466Z,84.16
2019-05-01T09:33:26.106Z,81.91
2019-05-01T09:34:23.790Z,82.01
2019-05-01T09:35:22.902Z,83.24
2019-05-01T09:36:23.086Z,83.20
2019-05-01T09:37:23.263Z,83.10
2019-05-01T09:38:23.428Z,81.57
2019-05-01T09:39:23.603Z,81.46
2019-05-01T09:40:23.751Z,81.51
2019-05-01T09:41:23.959Z,83.30
2019-05-01T09:42:25.376Z,81.81
2019-05-01T09:43:24.309Z,83.48
2019-05-01T09:44:24.458Z,84.95
2019-05-01T09:45:24.640Z,85.16
2019-05-01T09:46:24.819Z,83.83
2019-05-01T09:47:24.972Z,85.32
2019-05-01T09:48:25.149Z,86.05
2019-05-01T09:49:25.287Z,87.24
2019-05-01T09:50:25.991Z,86.44
2019-05-01T09:51:26.630Z,86.61
2019-05-01T09:52:25.746Z,83.16
2019-05-01T09:53:29.724Z,82.59
2019-05-01T09:54:27.025Z,82.87
2019-05-01T09:55:26.174Z,83.44
2019-05-01T09:56:26.336Z,83.44
2019-05-01T09:57:26.533Z,83.00
2019-05-01T09:58:26.703Z,80.75
2019-05-01T09:59:26.862Z,82.75
2019-05-01T10:00:27.024Z,81.63
2019-05-01T10:01:31.712Z,82.10
2019-05-01T10:02:29.367Z,80.64
2019-05-01T10:03:27.488Z,80.50
2019-05-01T10:04:30.170Z,79.00
2019-05-01T10:05:29.357Z,78.19
2019-05-01T10:06:27.959Z,79.72
2019-05-01T10:07:29.109Z,79.68
2019-05-01T10:08:29.288Z,77.75
2019-05-01T10:09:28.426Z,79.25
2019-05-01T10:10:29.326Z,79.00
2019-05-01T10:11:29.785Z,78.50
2019-05-01T10:12:28.947Z,79.00
2019-05-01T10:13:29.180Z,78.05
2019-05-01T10:14:31.602Z,77.61
2019-05-01T10:15:31.543Z,77.10
2019-05-01T10:16:29.677Z,77.57
2019-05-01T10:17:29.856Z,78.15
2019-05-01T10:18:30.032Z,75.43
2019-05-01T10:19:30.195Z,73.09
2019-05-01T10:20:30.345Z,75.33
2019-05-01T10:21:30.539Z,72.85
2019-05-01T10:22:32.990Z,72.31
2019-05-01T10:23:32.983Z,71.70
2019-05-01T10:24:32.114Z,72.41
2019-05-01T10:25:33.312Z,74.10
2019-05-01T10:26:31.559Z,72.11
2019-05-01T10:27:35.701Z,69.57
2019-05-01T10:28:32.929Z,72.17
2019-05-01T10:29:32.056Z,69.87
2019-05-01T10:30:36.279Z,72.11
2019-05-01T10:31:33.436Z,71.73
2019-05-01T10:32:32.569Z,72.89
2019-05-01T10:33:32.970Z,72.04
2019-05-01T10:34:32.956Z,70.72
2019-05-01T10:35:42.385Z,69.71
2019-05-01T10:36:35.345Z,69.81
2019-05-01T10:37:35.457Z,75.37
2019-05-01T10:38:33.806Z,75.09
2019-05-01T10:39:33.963Z,72.62
2019-05-01T10:40:34.376Z,72.69
2019-05-01T10:41:35.360Z,74.34
2019-05-01T10:42:34.488Z,71.97
2019-05-01T10:43:34.688Z,71.53
2019-05-01T10:44:34.850Z,70.72
2019-05-01T10:45:35.019Z,72.28
2019-05-01T10:46:35.203Z,72.21
2019-05-01T10:47:35.391Z,75.26
2019-05-01T10:48:35.579Z,74.58
2019-05-01T10:49:35.745Z,74.38
2019-05-01T10:50:35.912Z,76.04
2019-05-01T10:51:36.084Z,72.89
2019-05-01T10:52:36.266Z,74.82
2019-05-01T10:53:36.452Z,75.05
2019-05-01T10:54:36.630Z,73.53
2019-05-01T10:55:36.830Z,72.48
2019-05-01T10:56:37.047Z,73.19
2019-05-01T10:57:40.646Z,72.82
2019-05-01T10:58:38.482Z,70.83
2019-05-01T10:59:37.617Z,66.84
2019-05-01T11:00:37.826Z,66.24
2019-05-01T11:01:38.005Z,68.26
2019-05-01T11:02:38.249Z,67.56
2019-05-01T11:03:38.433Z,63.39
2019-05-01T11:04:38.643Z,63.96
2019-05-01T11:05:38.824Z,61.18
2019-05-01T11:06:39.015Z,61.43
2019-05-01T11:07:39.192Z,58.09
2019-05-01T11:08:39.410Z,56.36
2019-05-01T11:09:39.571Z,55.96
2019-05-01T11:10:39.740Z,55.16
2019-05-01T11:11:39.922Z,53.77
2019-05-01T11:12:40.106Z,56.43
2019-05-01T11:13:40.240Z,55.51
2019-05-01T11:14:40.425Z,55.43
2019-05-01T11:15:40.691Z,51.69
2019-05-01T11:16:40.724Z,55.00
2019-05-01T11:17:40.947Z,53.14
2019-05-01T11:18:41.129Z,52.57
2019-05-01T11:19:41.342Z,54.65
2019-05-01T11:20:41.494Z,55.41
2019-05-01T11:21:41.690Z,58.00
2019-05-01T11:22:41.854Z,55.76
2019-05-01T11:23:42.022Z,56.41
2019-05-01T11:24:42.209Z,57.19
2019-05-01T11:25:44.644Z,55.03
2019-05-01T11:26:42.520Z,54.15
2019-05-01T11:27:42.690Z,58.54
2019-05-01T11:28:42.845Z,60.32
2019-05-01T11:29:43.020Z,60.06
2019-05-01T11:30:43.180Z,59.95
2019-05-01T11:31:43.407Z,60.61
2019-05-01T11:32:43.654Z,62.34
2019-05-01T11:33:43.815Z,63.22
2019-05-01T11:34:43.988Z,61.21
2019-05-01T11:35:44.188Z,62.29
2019-05-01T11:36:44.369Z,60.15
2019-05-01T11:37:44.544Z,59.01
2019-05-01T11:38:44.714Z,61.25
2019-05-01T11:39:44.928Z,58.88
2019-05-01T11:40:45.086Z,58.95
2019-05-01T11:41:45.240Z,60.22
2019-05-01T11:42:45.422Z,62.30
2019-05-01T11:43:45.590Z,62.95
2019-05-01T11:44:46.786Z,61.35
2019-05-01T11:45:45.937Z,61.95
2019-05-01T11:46:46.108Z,61.27
2019-05-01T11:47:46.294Z,62.74
2019-05-01T11:48:46.471Z,62.48
2019-05-01T11:49:46.652Z,61.01
2019-05-01T11:50:46.858Z,60.08
2019-05-01T11:51:47.050Z,60.12
2019-05-01T11:52:47.217Z,59.84
2019-05-01T11:53:47.392Z,59.24
2019-05-01T11:54:47.577Z,60.45
2019-05-01T11:55:47.763Z,58.31
2019-05-01T11:56:47.905Z,59.89
2019-05-01T11:57:48.092Z,59.53
2019-05-01T11:58:48.213Z,58.29
2019-05-01T11:59:48.352Z,58.27
2019-05-01T12:00:48.505Z,58.57
2019-05-01T12:01:48.697Z,55.03
2019-05-01T12:02:48.868Z,54.68
2019-05-01T12:03:49.006Z,58.31
2019-05-01T12:04:49.268Z,58.94
2019-05-01T12:05:49.465Z,58.64
2019-05-01T12:06:49.628Z,60.93
2019-05-01T12:07:49.791Z,59.69
2019-05-01T12:08:49.940Z,61.03
2019-05-01T12:09:50.088Z,56.01
2019-05-01T12:10:50.290Z,56.14
2019-05-01T12:11:50.444Z,55.38
2019-05-01T12:12:50.596Z,56.23
2019-05-01T12:13:50.726Z,56.86
2019-05-01T12:14:50.854Z,55.96
2019-05-01T12:15:51.008Z,53.70
2019-05-01T12:16:51.169Z,54.97
2019-05-01T12:17:51.332Z,52.47
2019-05-01T12:18:51.486Z,55.03
2019-05-01T12:19:51.704Z,55.83
2019-05-01T12:20:51.881Z,58.53
2019-05-01T12:21:52.299Z,56.87
2019-05-01T12:22:52.207Z,62.19
2019-05-01T12:23:52.376Z,60.22
2019-05-01T12:24:52.561Z,59.86
2019-05-01T12:25:52.744Z,58.29
2019-05-01T12:26:52.929Z,56.23
2019-05-01T12:27:53.103Z,56.66
2019-05-01T12:28:53.248Z,54.93
2019-05-01T12:29:53.410Z,57.78
2019-05-01T12:30:53.546Z,57.24
2019-05-01T12:31:53.726Z,57.28
2019-05-01T12:32:53.879Z,59.94
2019-05-01T12:33:54.021Z,57.59
2019-05-01T12:34:54.168Z,56.30
2019-05-01T12:35:54.302Z,53.57
2019-05-01T12:36:54.467Z,52.52
2019-05-01T12:37:55.454Z,49.74
2019-05-01T12:38:55.717Z,52.32
2019-05-01T12:39:54.836Z,50.77
2019-05-01T12:40:54.966Z,51.07
2019-05-01T12:41:55.134Z,49.97
2019-05-01T12:42:55.242Z,49.39
2019-05-01T12:43:55.421Z,55.93
2019-05-01T12:44:55.577Z,55.35
2019-05-01T12:45:55.769Z,52.67
2019-05-01T12:46:55.908Z,55.10
2019-05-01T12:47:56.086Z,52.52
2019-05-01T12:48:56.224Z,54.35
2019-05-01T12:49:56.374Z,50.44
2019-05-01T12:50:56.521Z,51.59
2019-05-01T12:52:09.628Z,48.87
2019-05-01T12:52:58.056Z,48.92
2019-05-01T12:53:58.019Z,51.27
2019-05-01T12:54:57.254Z,52.89